Time;durP1;ratioP1;P1;durP2;ratioP2;P2;SDS_P1;SDS_P2;PMS_P1;PMS_P2;Temp;Humidity;BMP_temperature;BMP_pressure;BME280_temperature;BME280_humidity;BME280_pressure;Samples;Min_cycle;Max_cycle;Signal;HPM_P1;HPM_P2
2023/07/05 00:01:02;;;;;;;3.45;2.85;;;24.20;92.80;;;;;;6228394;28;89204;-66
2023/07/05 00:04:05;;;;;;;3.85;3.03;;;24.20;92.80;;;;;;6227677;28;90812;-66
2023/07/05 00:07:07;;;;;;;2.95;2.67;;;24.20;92.70;;;;;;6203665;28;89044;-66
2023/07/05 00:10:10;;;;;;;3.10;2.80;;;24.20;92.60;;;;;;6220824;28;88306;-66
2023/07/05 00:13:13;;;;;;;3.33;2.80;;;24.20;92.60;;;;;;6201064;28;89355;-66
2023/07/05 00:16:15;;;;;;;4.13;3.08;;;24.20;92.40;;;;;;6191099;28;89620;-66
2023/07/05 00:19:17;;;;;;;3.00;2.72;;;24.20;92.40;;;;;;6184386;28;90073;-66
2023/07/05 00:22:20;;;;;;;2.83;2.63;;;24.20;92.30;;;;;;6209371;28;88867;-66
2023/07/05 00:25:22;;;;;;;3.10;2.80;;;24.20;92.30;;;;;;6185698;28;89082;-66
2023/07/05 00:28:26;;;;;;;3.50;2.97;;;24.20;92.30;;;;;;6190030;28;89080;-66
2023/07/05 00:31:28;;;;;;;3.15;2.70;;;24.20;92.30;;;;;;6202287;28;88261;-66
2023/07/05 00:34:30;;;;;;;4.07;2.67;;;24.20;92.20;;;;;;6214648;28;89135;-66
2023/07/05 00:37:32;;;;;;;2.70;2.47;;;24.20;92.10;;;;;;6215842;28;89057;-66
2023/07/05 00:40:34;;;;;;;2.70;2.50;;;24.20;92.10;;;;;;6215352;28;88393;-66
2023/07/05 00:43:38;;;;;;;3.70;2.85;;;24.20;92.10;;;;;;6200878;28;90010;-66
2023/07/05 00:46:46;;;;;;;4.07;3.10;;;24.20;92.00;;;;;;6203577;28;89395;-66
2023/07/05 00:49:49;;;;;;;4.20;2.90;;;24.20;92.40;;;;;;6197035;28;90423;-66
2023/07/05 00:52:52;;;;;;;3.25;2.95;;;24.20;92.00;;;;;;6206090;28;89359;-66
2023/07/05 00:55:58;;;;;;;3.00;2.70;;;24.20;91.90;;;;;;6205635;28;89097;-66
2023/07/05 00:59:02;;;;;;;4.35;2.95;;;24.20;91.90;;;;;;6216867;28;89245;-66
2023/07/05 01:02:04;;;;;;;3.58;2.63;;;24.20;91.80;;;;;;6202220;28;89087;-66
2023/07/05 01:05:08;;;;;;;3.60;3.03;;;24.20;91.80;;;;;;6203344;28;89075;-66
2023/07/05 01:08:10;;;;;;;3.25;2.90;;;24.20;91.80;;;;;;6208835;28;90552;-66
2023/07/05 01:11:21;;;;;;;3.78;2.88;;;24.20;91.80;;;;;;6194898;28;88383;-66
2023/07/05 01:14:32;;;;;;;3.33;2.88;;;24.20;91.80;;;;;;6205771;28;89503;-65
2023/07/05 01:17:44;;;;;;;4.47;2.90;;;24.20;92.00;;;;;;6206072;28;89143;-65
2023/07/05 01:20:52;;;;;;;3.58;3.05;;;24.20;92.00;;;;;;6186509;28;91699;-66
2023/07/05 01:24:25;;;;;;;3.22;2.92;;;24.20;92.40;;;;;;6220361;28;88320;-66
2023/07/05 01:27:56;;;;;;;3.50;2.70;;;24.20;92.60;;;;;;6216267;28;89380;-67
2023/07/05 01:31:23;;;;;;;4.10;3.00;;;24.20;92.80;;;;;;6195309;28;87964;-66
2023/07/05 01:34:38;;;;;;;3.30;3.00;;;24.20;92.80;;;;;;6193142;28;89347;-67
2023/07/05 01:37:43;;;;;;;3.50;2.90;;;24.20;92.60;;;;;;6198843;28;87931;-67
2023/07/05 01:41:07;;;;;;;2.88;2.67;;;24.10;92.50;;;;;;6193411;28;88304;-67
2023/07/05 01:44:10;;;;;;;3.83;2.75;;;24.20;92.40;;;;;;6201757;28;88690;-66
2023/07/05 01:47:17;;;;;;;3.10;2.80;;;24.20;92.80;;;;;;6199121;28;89170;-67
2023/07/05 01:50:27;;;;;;;3.10;2.80;;;24.20;92.20;;;;;;6200106;28;89151;-67
2023/07/05 01:53:36;;;;;;;3.42;3.10;;;24.20;92.20;;;;;;6193345;28;90029;-67
2023/07/05 01:56:45;;;;;;;3.33;3.03;;;24.20;92.10;;;;;;6201312;28;88021;-67
2023/07/05 01:59:55;;;;;;;3.25;2.88;;;24.20;92.10;;;;;;6202128;28;89131;-67
2023/07/05 02:03:01;;;;;;;3.10;2.80;;;24.20;92.10;;;;;;6213773;28;91515;-67
2023/07/05 02:06:07;;;;;;;2.83;2.63;;;24.20;92.00;;;;;;6218379;28;89420;-68
2023/07/05 02:09:09;;;;;;;3.20;2.90;;;24.10;92.00;;;;;;6204530;28;88818;-67
2023/07/05 02:12:11;;;;;;;3.80;3.10;;;24.20;92.00;;;;;;6211581;28;89141;-67
2023/07/05 02:15:13;;;;;;;3.10;2.80;;;24.10;91.90;;;;;;6210674;28;88369;-67
2023/07/05 02:18:16;;;;;;;3.15;2.85;;;24.10;91.90;;;;;;6206231;28;89038;-67
2023/07/05 02:21:19;;;;;;;3.60;2.80;;;24.10;91.90;;;;;;6212427;28;89405;-67
2023/07/05 02:24:21;;;;;;;4.32;3.20;;;24.10;91.90;;;;;;6196508;28;89973;-67
2023/07/05 02:27:23;;;;;;;4.70;3.42;;;24.10;91.80;;;;;;6195368;28;89149;-67
2023/07/05 02:30:26;;;;;;;3.35;3.05;;;24.10;91.70;;;;;;6183775;28;89178;-67
2023/07/05 02:33:29;;;;;;;3.55;2.72;;;24.10;91.70;;;;;;6194331;28;90389;-67
2023/07/05 02:36:32;;;;;;;3.17;2.88;;;24.10;91.60;;;;;;6193143;28;89025;-67
2023/07/05 02:39:34;;;;;;;3.20;2.90;;;24.20;91.70;;;;;;6193329;28;88174;-67
2023/07/05 02:42:36;;;;;;;3.97;2.90;;;24.20;91.70;;;;;;6204586;28;89049;-67
2023/07/05 02:45:38;;;;;;;2.90;2.60;;;24.10;91.60;;;;;;6208896;28;87829;-67
2023/07/05 02:48:40;;;;;;;3.20;2.90;;;24.10;91.60;;;;;;6200252;28;89101;-67
2023/07/05 02:51:43;;;;;;;3.45;3.15;;;24.10;91.60;;;;;;6198806;28;93696;-67
2023/07/05 02:54:45;;;;;;;5.72;3.80;;;24.10;91.60;;;;;;6205353;28;90361;-67
2023/07/05 02:57:47;;;;;;;3.10;2.78;;;24.10;91.60;;;;;;6192818;28;89061;-67
2023/07/05 03:00:49;;;;;;;3.33;3.03;;;24.10;91.50;;;;;;6186092;28;89404;-67
2023/07/05 03:03:51;;;;;;;3.03;2.72;;;24.10;91.50;;;;;;6190169;28;89172;-67
2023/07/05 03:06:55;;;;;;;3.38;3.08;;;24.10;91.50;;;;;;6198691;28;89044;-67
2023/07/05 03:09:58;;;;;;;3.67;2.80;;;24.10;91.50;;;;;;6207763;28;89080;-67
2023/07/05 03:13:00;;;;;;;3.83;3.03;;;24.10;91.50;;;;;;6210267;28;89494;-67
2023/07/05 03:16:03;;;;;;;3.15;2.85;;;24.10;91.40;;;;;;6208751;28;87235;-67
2023/07/05 03:19:05;;;;;;;2.95;2.58;;;24.10;91.30;;;;;;6219029;28;89067;-67
2023/07/05 03:22:08;;;;;;;3.75;3.08;;;24.10;91.30;;;;;;6192891;28;89048;-67
2023/07/05 03:25:10;;;;;;;3.05;2.75;;;24.10;91.20;;;;;;6198238;28;90012;-66
2023/07/05 03:28:12;;;;;;;3.22;2.92;;;24.10;91.20;;;;;;6185818;28;89101;-67
2023/07/05 03:31:16;;;;;;;3.83;2.95;;;24.10;91.20;;;;;;6189366;28;89101;-66
2023/07/05 03:34:18;;;;;;;3.33;3.00;;;24.10;91.20;;;;;;6221015;28;88278;-67
2023/07/05 03:37:23;;;;;;;5.13;3.33;;;24.10;91.40;;;;;;6206722;28;89450;-66
2023/07/05 03:40:25;;;;;;;4.03;3.30;;;24.10;91.40;;;;;;6195789;28;88891;-66
2023/07/05 03:43:27;;;;;;;5.57;3.42;;;24.10;91.40;;;;;;6196161;28;88077;-66
2023/07/05 03:46:29;;;;;;;4.00;2.90;;;24.10;91.40;;;;;;6197183;28;88337;-67
2023/07/05 03:49:31;;;;;;;3.53;2.90;;;24.10;91.40;;;;;;6212854;28;91102;-66
2023/07/05 03:52:35;;;;;;;3.55;3.10;;;24.10;91.50;;;;;;6192153;28;89174;-67
2023/07/05 03:55:37;;;;;;;3.85;3.00;;;24.10;91.40;;;;;;6205598;28;90095;-67
2023/07/05 03:58:39;;;;;;;3.10;2.80;;;24.10;91.40;;;;;;6203222;28;89029;-66
2023/07/05 04:01:41;;;;;;;3.30;2.95;;;24.10;91.30;;;;;;6216037;28;89496;-66
2023/07/05 04:04:44;;;;;;;3.97;3.25;;;24.10;91.30;;;;;;6192772;28;89113;-66
2023/07/05 04:07:48;;;;;;;3.47;2.90;;;24.10;91.20;;;;;;6208054;28;89801;-66
2023/07/05 04:10:50;;;;;;;3.22;2.92;;;24.10;91.20;;;;;;6196312;28;89077;-67
2023/07/05 04:13:54;;;;;;;3.78;3.10;;;24.10;91.20;;;;;;6201775;28;89111;-66
2023/07/05 04:16:58;;;;;;;4.53;2.90;;;24.10;91.20;;;;;;6189722;28;88421;-66
2023/07/05 04:20:02;;;;;;;4.05;3.00;;;24.10;91.20;;;;;;6212815;28;87965;-67
2023/07/05 04:23:06;;;;;;;4.10;2.97;;;24.10;91.20;;;;;;6200118;28;89125;-66
2023/07/05 04:26:10;;;;;;;3.65;2.92;;;24.10;91.20;;;;;;6182918;28;90043;-67
2023/07/05 04:29:12;;;;;;;3.35;2.83;;;24.10;91.20;;;;;;6204297;28;89054;-67
2023/07/05 04:32:14;;;;;;;5.60;2.95;;;24.10;91.20;;;;;;6197013;28;89528;-67
2023/07/05 04:35:16;;;;;;;3.38;2.60;;;24.10;91.20;;;;;;6214778;28;89068;-67
2023/07/05 04:38:20;;;;;;;3.78;3.17;;;24.10;91.20;;;;;;6186829;28;89033;-67
2023/07/05 04:41:22;;;;;;;3.92;2.90;;;24.10;91.30;;;;;;6183172;28;89071;-67
2023/07/05 04:44:24;;;;;;;3.33;2.70;;;24.10;91.30;;;;;;6205354;28;89561;-67
2023/07/05 04:47:26;;;;;;;6.90;3.40;;;24.10;91.30;;;;;;6195404;28;88339;-67
2023/07/05 04:50:28;;;;;;;5.30;3.40;;;24.10;91.90;;;;;;6208880;28;89090;-67
2023/07/05 04:53:31;;;;;;;3.53;3.00;;;24.10;91.90;;;;;;6213389;28;89044;-67
2023/07/05 04:56:33;;;;;;;3.85;3.10;;;24.10;92.50;;;;;;6193385;28;90063;-67
2023/07/05 04:59:35;;;;;;;5.25;3.63;;;24.10;92.40;;;;;;6193497;28;89431;-67
2023/07/05 05:02:37;;;;;;;4.65;3.20;;;24.10;92.20;;;;;;6219791;28;89414;-67
2023/07/05 05:05:39;;;;;;;2.95;2.65;;;24.10;92.30;;;;;;6195553;28;91245;-67
2023/07/05 05:08:43;;;;;;;3.08;2.50;;;24.10;92.90;;;;;;6210984;28;88738;-67
2023/07/05 05:11:45;;;;;;;3.75;2.80;;;24.10;93.00;;;;;;6194028;28;89115;-67
2023/07/05 05:14:46;;;;;;;3.72;3.13;;;24.10;93.20;;;;;;6200585;28;89119;-67
2023/07/05 05:17:50;;;;;;;3.70;3.10;;;24.10;93.20;;;;;;6214856;28;88322;-67
2023/07/05 05:20:52;;;;;;;3.95;3.40;;;24.20;93.10;;;;;;6198477;28;89083;-67
2023/07/05 05:23:55;;;;;;;3.78;3.22;;;24.10;92.80;;;;;;6212486;28;89425;-66
2023/07/05 05:26:57;;;;;;;3.83;3.42;;;24.20;92.40;;;;;;6216350;28;90064;-67
2023/07/05 05:29:59;;;;;;;4.40;3.80;;;24.20;92.20;;;;;;6199264;28;89656;-67
2023/07/05 05:33:01;;;;;;;4.35;3.75;;;24.20;92.10;;;;;;6194878;28;87995;-67
2023/07/05 05:36:04;;;;;;;4.43;3.78;;;24.20;92.00;;;;;;6216079;28;89505;-68
2023/07/05 05:39:07;;;;;;;4.45;3.83;;;24.20;92.00;;;;;;6207228;28;89272;-67
2023/07/05 05:42:09;;;;;;;4.47;3.78;;;24.20;91.80;;;;;;6211188;28;88165;-67
2023/07/05 05:45:12;;;;;;;7.90;4.95;;;24.20;91.70;;;;;;6180905;28;89122;-67
2023/07/05 05:48:15;;;;;;;6.18;4.38;;;24.30;91.60;;;;;;6189221;28;88707;-67
2023/07/05 05:51:17;;;;;;;5.53;4.47;;;24.30;91.60;;;;;;6183604;28;89103;-67
2023/07/05 05:54:20;;;;;;;7.50;4.55;;;24.30;91.50;;;;;;6192149;28;89040;-67
2023/07/05 05:57:22;;;;;;;4.40;3.97;;;24.30;91.50;;;;;;6211293;28;90045;-68
2023/07/05 06:00:24;;;;;;;5.35;4.50;;;24.30;91.50;;;;;;6203698;28;89374;-67
2023/07/05 06:03:26;;;;;;;5.10;4.20;;;24.30;91.40;;;;;;6186697;28;87917;-68
2023/07/05 06:06:28;;;;;;;4.82;3.95;;;24.30;91.40;;;;;;6203959;28;89349;-67
2023/07/05 06:09:38;;;;;;;5.75;4.60;;;24.30;91.40;;;;;;6190332;28;89190;-67
2023/07/05 06:12:41;;;;;;;6.30;4.47;;;24.30;91.40;;;;;;6199294;28;87880;-67
2023/07/05 06:15:43;;;;;;;6.78;4.80;;;24.30;91.50;;;;;;6204827;28;89068;-67
2023/07/05 06:18:45;;;;;;;4.95;4.45;;;24.30;91.60;;;;;;6186013;28;87517;-67
2023/07/05 06:21:47;;;;;;;5.75;4.68;;;24.30;91.60;;;;;;6190289;28;89532;-67
2023/07/05 06:24:50;;;;;;;4.38;3.97;;;24.30;91.60;;;;;;6193127;28;89133;-67
2023/07/05 06:27:52;;;;;;;5.55;4.18;;;24.30;91.60;;;;;;6189412;28;89535;-68
2023/07/05 06:30:54;;;;;;;4.30;3.90;;;24.30;91.60;;;;;;6195830;28;89121;-67
2023/07/05 06:33:56;;;;;;;6.38;4.60;;;24.30;91.60;;;;;;6192105;28;89154;-67
2023/07/05 06:36:58;;;;;;;4.88;4.32;;;24.30;91.60;;;;;;6205236;28;89198;-67
2023/07/05 06:40:02;;;;;;;4.45;4.05;;;24.40;91.50;;;;;;6194328;28;89149;-67
2023/07/05 06:43:04;;;;;;;4.90;4.20;;;24.30;91.40;;;;;;6200268;28;89053;-67
2023/07/05 06:46:06;;;;;;;4.60;4.10;;;24.30;91.40;;;;;;6197555;28;88986;-67
2023/07/05 06:49:08;;;;;;;5.53;4.40;;;24.40;91.40;;;;;;6198235;28;89378;-67
2023/07/05 06:52:10;;;;;;;4.78;4.28;;;24.40;91.40;;;;;;6196513;28;89034;-67
2023/07/05 06:55:14;;;;;;;4.30;3.90;;;24.40;91.40;;;;;;6208417;28;89104;-67
2023/07/05 06:58:16;;;;;;;4.70;4.30;;;24.40;91.40;;;;;;6201631;28;89948;-67
2023/07/05 07:01:18;;;;;;;4.90;4.40;;;24.30;91.40;;;;;;6208900;28;89047;-67
2023/07/05 07:04:20;;;;;;;4.80;4.30;;;24.40;91.50;;;;;;6211116;28;89201;-67
2023/07/05 07:07:22;;;;;;;5.65;4.38;;;24.40;91.50;;;;;;6203342;28;89194;-66
2023/07/05 07:10:26;;;;;;;4.97;4.18;;;24.40;91.50;;;;;;6212735;28;87966;-67
2023/07/05 07:13:28;;;;;;;4.88;4.35;;;24.30;91.50;;;;;;6210664;28;87975;-67
2023/07/05 07:16:30;;;;;;;4.85;4.40;;;24.40;91.50;;;;;;6197480;28;87920;-67
2023/07/05 07:19:32;;;;;;;4.45;3.95;;;24.40;91.40;;;;;;6205653;28;88442;-67
2023/07/05 07:22:34;;;;;;;4.30;3.90;;;24.40;91.40;;;;;;6210214;28;88281;-67
2023/07/05 07:25:37;;;;;;;4.35;3.95;;;24.40;91.40;;;;;;6205267;28;89546;-67
2023/07/05 07:28:39;;;;;;;4.95;4.13;;;24.40;91.40;;;;;;6216699;28;90206;-67
2023/07/05 07:31:41;;;;;;;4.40;4.00;;;24.40;91.40;;;;;;6214030;28;89399;-67
2023/07/05 07:34:43;;;;;;;6.30;4.72;;;24.40;91.30;;;;;;6204987;28;90009;-68
2023/07/05 07:37:45;;;;;;;5.75;4.72;;;24.40;91.40;;;;;;6213947;28;89019;-68
2023/07/05 07:40:49;;;;;;;4.75;4.22;;;24.40;91.40;;;;;;6205649;28;89077;-67
2023/07/05 07:43:52;;;;;;;4.15;3.75;;;24.50;91.50;;;;;;6213021;28;89115;-67
2023/07/05 07:46:54;;;;;;;4.50;4.10;;;24.40;91.50;;;;;;6215993;28;89195;-67
2023/07/05 07:49:56;;;;;;;4.55;4.10;;;24.40;91.50;;;;;;6211242;28;88326;-67
2023/07/05 07:52:58;;;;;;;4.25;3.85;;;24.50;91.50;;;;;;6210397;28;89102;-67
2023/07/05 07:56:01;;;;;;;5.93;4.47;;;24.50;91.50;;;;;;6220873;28;89036;-67
2023/07/05 07:59:06;;;;;;;5.25;4.15;;;24.50;91.50;;;;;;6194889;28;90166;-67
2023/07/05 08:02:12;;;;;;;4.20;3.80;;;24.40;91.50;;;;;;6185583;28;89230;-67
2023/07/05 08:05:15;;;;;;;5.82;4.38;;;24.40;91.50;;;;;;6194932;28;91284;-67
2023/07/05 08:08:17;;;;;;;4.90;3.95;;;24.50;91.40;;;;;;6210233;28;89073;-67
2023/07/05 08:11:20;;;;;;;4.50;4.10;;;24.40;91.40;;;;;;6197576;28;89370;-67
2023/07/05 08:14:22;;;;;;;5.28;4.20;;;24.50;91.40;;;;;;6199638;28;89038;-68
2023/07/05 08:17:24;;;;;;;5.15;4.10;;;24.50;91.40;;;;;;6190851;28;89137;-67
2023/07/05 08:20:26;;;;;;;4.38;3.97;;;24.50;91.40;;;;;;6189593;28;88358;-67
2023/07/05 08:23:28;;;;;;;4.15;3.72;;;24.50;91.40;;;;;;6186433;28;89225;-67
2023/07/05 08:26:32;;;;;;;4.57;4.10;;;24.50;91.30;;;;;;6195254;28;89159;-67
2023/07/05 08:29:34;;;;;;;4.38;3.97;;;24.40;91.30;;;;;;6197794;28;88759;-67
2023/07/05 08:32:36;;;;;;;5.78;4.20;;;24.50;91.40;;;;;;6183630;28;89079;-67
2023/07/05 08:35:38;;;;;;;4.53;4.13;;;24.40;91.50;;;;;;6204583;28;89076;-67
2023/07/05 08:38:42;;;;;;;4.32;3.92;;;24.40;91.50;;;;;;6208902;28;89129;-67
2023/07/05 08:42:00;;;;;;;4.75;4.20;;;24.40;91.50;;;;;;6193454;28;89036;-67
2023/07/05 08:45:13;;;;;;;5.75;4.28;;;24.50;91.60;;;;;;6201820;28;89196;-67
2023/07/05 08:48:16;;;;;;;6.60;4.90;;;24.50;91.60;;;;;;6199532;28;89151;-67
2023/07/05 08:51:19;;;;;;;4.50;3.67;;;24.40;91.50;;;;;;6203027;28;88676;-67
2023/07/05 08:54:21;;;;;;;4.50;4.03;;;24.40;91.50;;;;;;6192842;28;89439;-67
2023/07/05 08:57:29;;;;;;;4.05;3.65;;;24.40;91.50;;;;;;6207786;28;89117;-67
2023/07/05 09:00:41;;;;;;;4.07;3.67;;;24.40;91.50;;;;;;6203540;28;90388;-67
2023/07/05 09:03:43;;;;;;;4.20;3.80;;;24.40;91.50;;;;;;6206107;28;89041;-67
2023/07/05 09:06:52;;;;;;;4.28;3.80;;;24.40;91.50;;;;;;6223401;28;89012;-67
2023/07/05 09:10:04;;;;;;;3.78;3.47;;;24.50;91.50;;;;;;6214511;28;89209;-67
2023/07/05 09:13:15;;;;;;;4.00;3.70;;;24.50;91.40;;;;;;6206646;28;89439;-67
2023/07/05 09:16:28;;;;;;;4.15;3.75;;;24.50;91.40;;;;;;6205560;28;89127;-67
2023/07/05 09:19:41;;;;;;;4.60;3.58;;;24.40;91.30;;;;;;6199188;28;88001;-67
2023/07/05 09:22:44;;;;;;;3.83;3.53;;;24.50;91.30;;;;;;6189494;28;87507;-67
2023/07/05 09:25:51;;;;;;;4.10;3.70;;;24.50;91.30;;;;;;6192231;28;89070;-67
2023/07/05 09:29:05;;;;;;;4.57;3.80;;;24.40;91.20;;;;;;6204993;28;89240;-68
2023/07/05 09:32:12;;;;;;;4.28;3.55;;;24.50;91.20;;;;;;6198888;28;91030;-67
2023/07/05 09:35:18;;;;;;;3.75;3.42;;;24.50;91.20;;;;;;6204167;28;88761;-67
2023/07/05 09:38:26;;;;;;;3.70;3.38;;;24.50;91.20;;;;;;6203847;28;89794;-67
2023/07/05 09:41:47;;;;;;;4.28;3.88;;;24.50;91.20;;;;;;6200035;28;89139;-67
2023/07/05 09:44:51;;;;;;;4.20;3.55;;;24.40;91.20;;;;;;6187092;28;89074;-67
2023/07/05 09:47:59;;;;;;;3.58;3.28;;;24.50;91.40;;;;;;6204641;28;89183;-67
2023/07/05 09:51:03;;;;;;;3.75;3.42;;;24.50;91.40;;;;;;6216305;28;89133;-67
2023/07/05 09:54:07;;;;;;;3.50;3.20;;;24.40;91.30;;;;;;6187213;28;88714;-67
2023/07/05 09:57:12;;;;;;;3.67;3.38;;;24.40;91.30;;;;;;6195467;28;89148;-66
2023/07/05 10:00:29;;;;;;;4.38;3.30;;;24.50;91.30;;;;;;6185666;28;89028;-67
2023/07/05 10:03:35;;;;;;;3.65;3.28;;;24.50;91.20;;;;;;6203748;28;88965;-67
2023/07/05 10:06:40;;;;;;;3.60;3.30;;;24.50;91.20;;;;;;6208157;28;89013;-67
2023/07/05 10:09:57;;;;;;;3.50;3.20;;;24.50;91.20;;;;;;6185695;28;89330;-67
2023/07/05 10:13:02;;;;;;;3.30;3.00;;;24.50;91.20;;;;;;6202597;28;88165;-67
2023/07/05 10:16:06;;;;;;;3.55;3.25;;;24.50;91.10;;;;;;6186009;28;89442;-68
2023/07/05 10:19:20;;;;;;;3.42;3.13;;;24.50;91.10;;;;;;6208697;28;88994;-67
2023/07/05 10:22:27;;;;;;;3.28;2.97;;;24.50;91.10;;;;;;6199654;28;89067;-67
2023/07/05 10:25:34;;;;;;;3.50;3.20;;;24.40;91.00;;;;;;6198985;28;88365;-67
2023/07/05 10:28:37;;;;;;;3.50;3.20;;;24.50;91.10;;;;;;6212253;28;89039;-67
2023/07/05 10:31:53;;;;;;;3.17;2.88;;;24.50;91.10;;;;;;6200410;28;89027;-67
2023/07/05 10:34:55;;;;;;;3.40;3.10;;;24.50;91.20;;;;;;6212494;28;90044;-67
2023/07/05 10:37:59;;;;;;;3.83;3.42;;;24.50;91.30;;;;;;6192808;28;89073;-67
2023/07/05 10:41:11;;;;;;;3.50;3.20;;;24.50;91.30;;;;;;6205751;28;89372;-67
2023/07/05 10:44:20;;;;;;;3.33;2.92;;;24.50;91.30;;;;;;6195388;28;89190;-67
2023/07/05 10:47:24;;;;;;;3.72;3.40;;;24.50;91.30;;;;;;6200445;28;89029;-68
2023/07/05 10:50:32;;;;;;;3.78;3.40;;;24.50;91.20;;;;;;6202071;28;89282;-68
2023/07/05 10:53:34;;;;;;;3.53;3.22;;;24.50;91.20;;;;;;6214087;28;88052;-68
2023/07/05 10:56:38;;;;;;;3.40;3.10;;;24.50;91.20;;;;;;6187499;28;90119;-67
2023/07/05 10:59:44;;;;;;;3.40;3.10;;;24.50;91.10;;;;;;6199161;28;89075;-67
2023/07/05 11:02:50;;;;;;;3.78;3.28;;;24.50;91.00;;;;;;6204439;28;88977;-67
2023/07/05 11:05:55;;;;;;;3.00;2.70;;;24.50;91.10;;;;;;6198110;28;89968;-67
2023/07/05 11:08:57;;;;;;;3.78;2.97;;;24.50;91.00;;;;;;6204631;28;89136;-68
2023/07/05 11:12:03;;;;;;;4.68;3.60;;;24.50;91.00;;;;;;6202491;28;89101;-68
2023/07/05 11:15:06;;;;;;;3.17;2.88;;;24.50;91.00;;;;;;6182742;28;88352;-67
2023/07/05 11:18:15;;;;;;;3.30;3.00;;;24.50;91.00;;;;;;6208670;28;89080;-67
2023/07/05 11:21:38;;;;;;;3.33;3.03;;;24.50;91.10;;;;;;6193326;28;89435;-68
2023/07/05 11:24:44;;;;;;;4.00;3.58;;;24.50;91.20;;;;;;6197816;28;88144;-67
2023/07/05 11:27:52;;;;;;;3.22;2.92;;;24.50;91.20;;;;;;6190595;28;88155;-68
2023/07/05 11:30:55;;;;;;;3.78;3.33;;;24.50;91.20;;;;;;6207959;28;89114;-67
2023/07/05 11:37:52;;;;;;;3.22;2.75;;;24.50;91.20;;;;;;6241595;27;80206;-68
2023/07/05 11:40:58;;;;;;;4.53;3.22;;;24.50;91.20;;;;;;6232227;28;82619;-68
2023/07/05 11:44:02;;;;;;;4.28;3.35;;;24.50;91.10;;;;;;6249206;28;82455;-68
2023/07/05 11:47:05;;;;;;;4.57;3.50;;;24.50;91.10;;;;;;6242693;28;82203;-68
2023/07/05 11:50:09;;;;;;;2.92;2.67;;;24.50;91.10;;;;;;6242288;28;82409;-68
2023/07/05 11:53:14;;;;;;;3.40;3.10;;;24.50;91.00;;;;;;6241657;27;81926;-68
2023/07/05 11:56:18;;;;;;;3.20;2.90;;;24.50;91.00;;;;;;6239980;28;82294;-68
2023/07/05 11:59:23;;;;;;;2.67;2.47;;;24.50;91.00;;;;;;6234067;28;81085;-68
2023/07/05 12:02:49;;;;;;;3.10;2.80;;;24.50;91.00;;;;;;6251572;27;81223;-68
2023/07/05 12:05:56;;;;;;;3.00;2.70;;;24.50;91.00;;;;;;6240373;28;82792;-68
2023/07/05 12:09:04;;;;;;;2.97;2.67;;;24.50;91.00;;;;;;6239833;27;82428;-68
2023/07/05 12:12:12;;;;;;;3.28;2.97;;;24.50;91.00;;;;;;6243928;27;82377;-68
2023/07/05 12:15:14;;;;;;;3.45;3.03;;;24.50;91.10;;;;;;6248666;27;82075;-68
2023/07/05 12:18:17;;;;;;;2.75;2.55;;;24.50;91.10;;;;;;6246792;28;82261;-68
2023/07/05 12:21:19;;;;;;;3.05;2.75;;;24.50;91.20;;;;;;6244148;27;82686;-69
2023/07/05 12:24:22;;;;;;;2.75;2.55;;;24.50;91.20;;;;;;6243745;28;83033;-68
2023/07/05 12:27:27;;;;;;;2.92;2.63;;;24.50;91.20;;;;;;6253448;27;81368;-69
2023/07/05 12:30:31;;;;;;;3.30;3.00;;;24.50;91.10;;;;;;6253723;27;82342;-68
2023/07/05 12:33:36;;;;;;;3.60;2.95;;;24.50;91.10;;;;;;6241380;28;82708;-68
2023/07/05 12:36:42;;;;;;;3.10;2.80;;;24.50;91.10;;;;;;6252947;27;82462;-69
2023/07/05 12:39:45;;;;;;;3.22;2.85;;;24.50;91.10;;;;;;6254807;27;81320;-68
2023/07/05 12:42:49;;;;;;;2.72;2.53;;;24.50;91.10;;;;;;6247726;27;84849;-68
2023/07/05 12:45:51;;;;;;;3.13;2.83;;;24.50;91.50;;;;;;6233850;28;81386;-68
2023/07/05 12:48:54;;;;;;;3.20;2.88;;;24.50;91.00;;;;;;6233782;28;82384;-68
2023/07/05 12:51:58;;;;;;;2.45;2.25;;;24.50;91.00;;;;;;6237254;28;82258;-68
2023/07/05 12:55:01;;;;;;;3.10;2.80;;;24.50;91.00;;;;;;6229494;28;81123;-68
2023/07/05 12:58:07;;;;;;;3.03;2.72;;;24.50;91.00;;;;;;6225438;28;82249;-69
2023/07/05 13:01:13;;;;;;;3.05;2.67;;;24.50;91.00;;;;;;6230747;28;82416;-68
2023/07/05 13:04:18;;;;;;;3.08;2.78;;;24.50;91.00;;;;;;6219905;28;82778;-69
2023/07/05 13:07:23;;;;;;;2.75;2.55;;;24.50;91.10;;;;;;6219441;28;82215;-68
2023/07/05 13:10:27;;;;;;;4.32;3.42;;;24.50;91.10;;;;;;6224749;28;82667;-68
2023/07/05 13:13:33;;;;;;;3.47;3.05;;;24.50;91.10;;;;;;6230748;28;82362;-69
2023/07/05 13:16:50;;;;;;;3.67;2.80;;;24.50;91.10;;;;;;6216674;28;82610;-68
2023/07/05 13:20:06;;;;;;;3.00;2.70;;;24.50;91.10;;;;;;6225963;28;82380;-67
2023/07/05 13:23:08;;;;;;;3.22;2.92;;;24.50;91.00;;;;;;6226779;28;82335;-68
2023/07/05 13:26:31;;;;;;;2.92;2.63;;;24.60;91.10;;;;;;6237981;28;82617;-69
2023/07/05 13:29:36;;;;;;;2.83;2.45;;;24.50;91.00;;;;;;6224837;28;83291;-68
2023/07/05 13:32:41;;;;;;;2.88;2.58;;;24.60;91.00;;;;;;6236044;28;82243;-68
2023/07/05 13:35:43;;;;;;;2.67;2.47;;;24.60;91.00;;;;;;6223116;28;82375;-69
2023/07/05 13:38:45;;;;;;;3.00;2.70;;;24.60;91.00;;;;;;6222208;28;82255;-69
2023/07/05 13:41:53;;;;;;;2.60;2.40;;;24.50;90.90;;;;;;6227829;28;82373;-68
2023/07/05 13:44:55;;;;;;;2.83;2.63;;;24.50;90.90;;;;;;6224150;28;82460;-69
2023/07/05 13:47:59;;;;;;;2.72;2.53;;;24.50;90.90;;;;;;6236235;28;82531;-69
2023/07/05 13:51:02;;;;;;;2.60;2.40;;;24.50;90.90;;;;;;6235240;28;81542;-69
2023/07/05 13:54:04;;;;;;;2.67;2.47;;;24.60;91.00;;;;;;6223837;28;82666;-68
2023/07/05 13:57:15;;;;;;;2.58;2.38;;;24.60;91.00;;;;;;6222290;28;83301;-69
2023/07/05 14:00:18;;;;;;;2.60;2.40;;;24.60;91.00;;;;;;6231524;28;82656;-69
2023/07/05 14:03:20;;;;;;;2.53;2.33;;;24.50;91.00;;;;;;6231591;28;81123;-69
2023/07/05 14:06:23;;;;;;;3.25;2.53;;;24.60;91.00;;;;;;6224380;28;81991;-69
2023/07/05 14:09:25;;;;;;;2.78;2.53;;;24.50;90.90;;;;;;6232628;28;82377;-69
2023/07/05 14:12:28;;;;;;;3.00;2.60;;;24.50;90.90;;;;;;6224478;28;81180;-69
2023/07/05 14:15:36;;;;;;;2.45;2.25;;;24.50;90.90;;;;;;6211676;28;82325;-69
2023/07/05 14:18:38;;;;;;;2.53;2.33;;;24.50;90.90;;;;;;6223720;28;82293;-69
2023/07/05 14:21:40;;;;;;;2.70;2.50;;;24.50;90.80;;;;;;6224275;28;83442;-69
2023/07/05 14:24:42;;;;;;;3.63;2.80;;;24.60;90.90;;;;;;6234512;28;82307;-69
2023/07/05 14:27:45;;;;;;;2.53;2.33;;;24.50;90.80;;;;;;6220800;28;82276;-70
2023/07/05 14:30:49;;;;;;;2.42;2.22;;;24.50;90.80;;;;;;6224908;28;82548;-69
2023/07/05 14:33:51;;;;;;;3.40;2.33;;;24.50;90.80;;;;;;6218840;28;82341;-69
2023/07/05 14:36:54;;;;;;;2.55;2.35;;;24.50;90.70;;;;;;6212653;28;81241;-69
2023/07/05 14:39:57;;;;;;;3.17;2.22;;;24.50;90.70;;;;;;6214222;28;82711;-69
2023/07/05 14:43:00;;;;;;;3.65;2.70;;;24.50;90.80;;;;;;6217194;28;82355;-69
2023/07/05 14:46:02;;;;;;;2.47;2.28;;;24.60;90.80;;;;;;6224416;28;81229;-69
2023/07/05 14:49:04;;;;;;;2.83;2.40;;;24.50;90.70;;;;;;6228149;28;82681;-69
2023/07/05 14:52:08;;;;;;;3.03;2.47;;;24.50;90.70;;;;;;6232676;28;82495;-69
2023/07/05 14:55:14;;;;;;;2.60;2.35;;;24.50;90.70;;;;;;6232231;28;81971;-69
2023/07/05 14:58:18;;;;;;;2.40;2.20;;;24.60;90.70;;;;;;6223708;28;82568;-69
2023/07/05 15:01:20;;;;;;;2.65;2.40;;;24.50;90.70;;;;;;6210221;28;82323;-69
2023/07/05 15:04:22;;;;;;;2.63;2.30;;;24.50;90.70;;;;;;6225568;28;81509;-69
2023/07/05 15:07:24;;;;;;;3.17;2.40;;;24.50;90.60;;;;;;6212132;28;82359;-69
2023/07/05 15:10:26;;;;;;;3.50;2.90;;;24.50;90.60;;;;;;6232900;28;82508;-69
2023/07/05 15:13:31;;;;;;;3.45;2.60;;;24.60;90.70;;;;;;6235148;28;82280;-69
2023/07/05 15:16:33;;;;;;;2.80;2.42;;;24.60;90.70;;;;;;6223834;28;82151;-70
2023/07/05 15:19:35;;;;;;;2.70;2.42;;;24.50;90.70;;;;;;6221129;28;82378;-70
2023/07/05 15:22:37;;;;;;;2.83;2.40;;;24.50;90.70;;;;;;6232803;28;82448;-71
2023/07/05 15:25:40;;;;;;;2.50;2.30;;;24.50;90.70;;;;;;6221658;28;82583;-70
2023/07/05 15:28:44;;;;;;;2.60;2.38;;;24.50;90.70;;;;;;6226559;28;82347;-70
2023/07/05 15:31:47;;;;;;;2.75;2.55;;;24.50;90.70;;;;;;6210334;28;82541;-70
2023/07/05 15:34:49;;;;;;;2.67;2.17;;;24.50;90.70;;;;;;6227200;28;83267;-70
2023/07/05 15:37:51;;;;;;;3.08;2.70;;;24.50;90.70;;;;;;6225007;28;82724;-69
2023/07/05 15:40:53;;;;;;;2.88;2.50;;;24.50;90.70;;;;;;6221853;28;82327;-70
2023/07/05 15:43:57;;;;;;;3.40;2.65;;;24.50;90.70;;;;;;6226720;28;82393;-70
2023/07/05 15:46:59;;;;;;;2.85;2.25;;;24.50;90.70;;;;;;6218550;28;82311;-70
2023/07/05 15:50:02;;;;;;;2.60;2.40;;;24.50;90.70;;;;;;6223075;28;82349;-70
2023/07/05 15:53:05;;;;;;;2.75;2.45;;;24.50;90.70;;;;;;6223473;28;82036;-70
2023/07/05 15:56:07;;;;;;;3.33;2.55;;;24.50;90.70;;;;;;6218172;28;82145;-70
2023/07/05 15:59:12;;;;;;;2.70;2.50;;;24.50;90.70;;;;;;6221317;28;82691;-70
2023/07/05 16:02:16;;;;;;;3.22;2.20;;;24.50;90.70;;;;;;6227941;28;81006;-70
2023/07/05 16:05:18;;;;;;;2.95;2.60;;;24.50;90.70;;;;;;6212875;28;81290;-70